Lake Sumner, New Mexico
Current Conditions -  °F | °C
As of 4:56 AM on Sunday 25 Jan 2015 (Local Time) from K4MR Reporting Station
Clear Clear  
Wind Chill: 35°   Ceiling: Unl
Heat Index: 35°   Visibility: 10mi
Dew Point: 25°   Wind: 3mph
Humidity: 65%   Direction: 110°ESE
Pressure: 30.18"   Gusts: NA
Location:  34.3001°N, 104.256°W
Report Text: K4MR 251156Z AUTO 11003KT 10SM CLR 02/M04 A3018 RMK AO2 SLP219 70003 T00191041 10033 21002 52013
Loading
Personal Weather Stations






























Interactive Weather Map New forecast layout! Learn more

10-Day Weather Forecast

Advertisements
Track Severe Weather on mobile